^^
Marion, Virginia Banner
 

Adwolf, VA. Station Historical Data
[ Providing Data Since 6/07/2007 ]
Station Historical Data
Daily Summary for March 20, 2017 Units:  English    Metric   Both
« Previous Day
Next Day »
Daily Weekly Monthly Yearly Custom
  High: Low: Average:
Temperature: 60.7 °F 24.8 °F 43.3 °F
Dew Point: 44.4 °F 23.0 °F 31.8 °F
Humidity: 94% 36% 68%
Wind Speed: 14.0mph 0.0mph 3.5mph
Wind Gust: 14.0mph - -
Wind- - SW
Pressure: 30.35 in 30.10 in -
Precipitation: 0.01 in    
Historical Graphs
 
 
Tabular Data for March 20, 2017
Time Temperature Dew Point Pressure Wind Wind Speed Wind Gust Humidity Rainfall Rate (Hourly) solar Conditions
00:02 29.2 °F 26.3 °F 30.35 in Calm     89% 0.00 in WeatherDisplay:10.37 W/m2 RA
00:07 29.1 °F 26.2 °F 30.35 in Calm     89% 0.00 in WeatherDisplay:10.37 W/m2 RA
00:17 28.8 °F 26.2 °F 30.35 in Calm     90% 0.00 in WeatherDisplay:10.37 W/m2 CLR
00:22 28.8 °F 26.2 °F 30.35 in Calm     90% 0.00 in WeatherDisplay:10.37 W/m2 CLR
00:27 28.7 °F 26.1 °F 30.35 in WNW 1.2 mph   90% 0.00 in WeatherDisplay:10.37 W/m2 CLR
00:32 28.7 °F 26.1 °F 30.35 in Calm     90% 0.00 in WeatherDisplay:10.37 W/m2 CLR
00:37 28.5 °F 25.9 °F 30.34 in WNW 1.2 mph 1.2 mph 90% 0.00 in WeatherDisplay:10.37 W/m2 CLR
00:42 28.5 °F 25.9 °F 30.34 in WNW 2.3 mph 2.3 mph 90% 0.00 in WeatherDisplay:10.37 W/m2 CLR
00:47 28.5 °F 25.9 °F 30.34 in WNW 2.3 mph 2.3 mph 90% 0.00 in WeatherDisplay:10.37 W/m2 CLR
00:52 28.6 °F 26.3 °F 30.34 in WNW 2.3 mph 2.3 mph 91% 0.00 in WeatherDisplay:10.37 W/m2 CLR
00:57 28.7 °F 26.4 °F 30.33 in WNW 1.2 mph   91% 0.00 in WeatherDisplay:10.37 W/m2 CLR
01:02 28.7 °F 26.4 °F 30.33 in Calm     91% 0.00 in WeatherDisplay:10.37 W/m2 CLR
01:07 28.6 °F 26.3 °F 30.33 in WNW 1.0 mph 1.0 mph 91% 0.00 in WeatherDisplay:10.37 W/m2 CLR
01:12 28.5 °F 26.2 °F 30.32 in WNW 2.0 mph 2.0 mph 91% 0.00 in WeatherDisplay:10.37 W/m2 CLR
01:17 28.5 °F 26.2 °F 30.32 in Calm     91% 0.00 in WeatherDisplay:10.37 W/m2 CLR
01:22 28.4 °F 26.1 °F 30.32 in WNW 1.2 mph 1.2 mph 91% 0.00 in WeatherDisplay:10.37 W/m2 CLR
01:27 28.3 °F 26.0 °F 30.32 in Calm     91% 0.00 in WeatherDisplay:10.37 W/m2 CLR
01:32 28.2 °F 25.9 °F 30.32 in Calm     91% 0.00 in WeatherDisplay:10.37 W/m2 CLR
01:37 28.2 °F 25.9 °F 30.32 in Calm     91% 0.00 in WeatherDisplay:10.37 W/m2 CLR
01:42 28.1 °F 25.8 °F 30.32 in Calm     91% 0.00 in WeatherDisplay:10.37 W/m2 CLR
01:47 27.9 °F 25.8 °F 30.32 in Calm     92% 0.00 in WeatherDisplay:10.37 W/m2 CLR
01:52 27.9 °F 25.8 °F 30.32 in WNW 1.2 mph 1.2 mph 92% 0.00 in WeatherDisplay:10.37 W/m2 CLR
01:57 27.8 °F 25.7 °F 30.32 in WNW 1.2 mph 1.2 mph 92% 0.00 in WeatherDisplay:10.37 W/m2 CLR
02:02 27.6 °F 25.5 °F 30.32 in Calm     92% 0.00 in WeatherDisplay:10.37 W/m2 CLR
02:07 27.6 °F 25.5 °F 30.32 in WNW 1.2 mph 1.2 mph 92% 0.00 in WeatherDisplay:10.37 W/m2 CLR
02:12 27.6 °F 25.5 °F 30.32 in WNW 2.3 mph 2.3 mph 92% 0.00 in WeatherDisplay:10.37 W/m2 CLR
02:17 27.6 °F 25.8 °F 30.32 in Calm     93% 0.00 in WeatherDisplay:10.37 W/m2 CLR
02:22 27.6 °F 25.5 °F 30.32 in Calm     92% 0.00 in WeatherDisplay:10.37 W/m2 CLR
02:27 27.5 °F 25.4 °F 30.32 in Calm     92% 0.00 in WeatherDisplay:10.37 W/m2 CLR
02:32 27.4 °F 25.3 °F 30.32 in Calm     92% 0.00 in WeatherDisplay:10.37 W/m2 CLR
02:37 27.3 °F 25.2 °F 30.32 in WNW 1.0 mph 1.0 mph 92% 0.00 in WeatherDisplay:10.37 W/m2 CLR
02:42 27.3 °F 25.2 °F 30.32 in Calm     92% 0.00 in WeatherDisplay:10.37 W/m2 CLR
02:47 27.2 °F 25.1 °F 30.32 in WNW 1.2 mph 1.2 mph 92% 0.00 in WeatherDisplay:10.37 W/m2 CLR
02:52 27.1 °F 25.3 °F 30.32 in Calm     93% 0.00 in WeatherDisplay:10.37 W/m2 CLR
02:57 27.1 °F 25.3 °F 30.32 in WNW 1.2 mph 1.2 mph 93% 0.00 in WeatherDisplay:10.37 W/m2 CLR
03:02 27.1 °F 25.3 °F 30.32 in Calm     93% 0.00 in WeatherDisplay:10.37 W/m2 CLR
03:07 27.0 °F 25.2 °F 30.33 in Calm     93% 0.00 in WeatherDisplay:10.37 W/m2 CLR
03:12 26.9 °F 25.1 °F 30.33 in Calm     93% 0.00 in WeatherDisplay:10.37 W/m2 CLR
03:17 26.8 °F 25.0 °F 30.33 in WNW 1.2 mph 1.2 mph 93% 0.00 in WeatherDisplay:10.37 W/m2 CLR
03:22 26.6 °F 24.6 °F 30.33 in WNW 1.2 mph 1.2 mph 92% 0.00 in WeatherDisplay:10.37 W/m2 CLR
03:27 26.5 °F 24.5 °F 30.33 in Calm     92% 0.00 in WeatherDisplay:10.37 W/m2 CLR
03:32 26.4 °F 24.4 °F 30.33 in Calm     92% 0.00 in WeatherDisplay:10.37 W/m2 CLR
03:37 26.2 °F 24.2 °F 30.33 in Calm     92% 0.00 in WeatherDisplay:10.37 W/m2 CLR
03:42 26.1 °F 24.3 °F 30.32 in Calm     93% 0.00 in WeatherDisplay:10.37 W/m2 CLR
03:47 26.1 °F 24.3 °F 30.32 in Calm     93% 0.00 in WeatherDisplay:10.37 W/m2 CLR
03:52 26.1 °F 24.3 °F 30.32 in Calm     93% 0.00 in WeatherDisplay:10.37 W/m2 CLR
03:57 26.0 °F 24.2 °F 30.32 in Calm     93% 0.00 in WeatherDisplay:10.37 W/m2 CLR
04:02 26.0 °F 24.2 °F 30.32 in Calm     93% 0.00 in WeatherDisplay:10.37 W/m2 CLR
04:07 25.8 °F 24.0 °F 30.32 in Calm     93% 0.00 in WeatherDisplay:10.37 W/m2 CLR
04:12 26.0 °F 24.2 °F 30.32 in Calm     93% 0.00 in WeatherDisplay:10.37 W/m2 CLR
04:17 26.0 °F 24.2 °F 30.32 in Calm     93% 0.00 in WeatherDisplay:10.37 W/m2 CLR
04:22 25.9 °F 24.1 °F 30.32 in Calm     93% 0.00 in WeatherDisplay:10.37 W/m2 CLR
04:27 25.8 °F 24.0 °F 30.32 in Calm     93% 0.00 in WeatherDisplay:10.37 W/m2 CLR
04:32 25.7 °F 23.9 °F 30.32 in Calm     93% 0.00 in WeatherDisplay:10.37 W/m2 CLR
04:37 25.7 °F 23.9 °F 30.32 in Calm     93% 0.00 in WeatherDisplay:10.37 W/m2 CLR
04:42 25.6 °F 23.8 °F 30.31 in Calm     93% 0.00 in WeatherDisplay:10.37 W/m2 CLR
04:47 25.5 °F 23.7 °F 30.32 in Calm     93% 0.00 in WeatherDisplay:10.37 W/m2 CLR
04:52 25.4 °F 23.6 °F 30.32 in Calm     93% 0.00 in WeatherDisplay:10.37 W/m2 CLR
04:57 25.3 °F 23.5 °F 30.32 in Calm     93% 0.00 in WeatherDisplay:10.37 W/m2 CLR
05:02 25.3 °F 23.5 °F 30.32 in Calm     93% 0.00 in WeatherDisplay:10.37 W/m2 CLR
05:07 25.1 °F 23.3 °F 30.32 in Calm     93% 0.00 in WeatherDisplay:10.37 W/m2 CLR
05:12 25.2 °F 23.4 °F 30.32 in Calm     93% 0.00 in WeatherDisplay:10.37 W/m2 CLR
05:17 25.3 °F 23.8 °F 30.32 in Calm     94% 0.00 in WeatherDisplay:10.37 W/m2 CLR
05:22 25.3 °F 23.8 °F 30.32 in Calm     94% 0.00 in WeatherDisplay:10.37 W/m2 CLR
05:27 25.3 °F 23.8 °F 30.32 in Calm     94% 0.00 in WeatherDisplay:10.37 W/m2 CLR
05:32 25.4 °F 23.9 °F 30.32 in Calm     94% 0.00 in WeatherDisplay:10.37 W/m2 CLR
05:37 25.3 °F 23.8 °F 30.32 in Calm     94% 0.00 in WeatherDisplay:10.37 W/m2 CLR
05:42 25.3 °F 23.5 °F 30.32 in Calm     93% 0.00 in WeatherDisplay:10.37 W/m2 CLR
05:47 25.3 °F 23.5 °F 30.31 in Calm     93% 0.00 in WeatherDisplay:10.37 W/m2 CLR
05:52 25.2 °F 23.4 °F 30.31 in Calm     93% 0.00 in WeatherDisplay:10.37 W/m2 CLR
05:57 25.1 °F 23.3 °F 30.32 in Calm     93% 0.00 in WeatherDisplay:10.37 W/m2 CLR
06:02 25.1 °F 23.3 °F 30.31 in Calm     93% 0.00 in WeatherDisplay:10.37 W/m2 CLR
06:07 25.1 °F 23.6 °F 30.31 in Calm     94% 0.00 in WeatherDisplay:10.37 W/m2 CLR
06:12 25.0 °F 23.2 °F 30.31 in Calm     93% 0.00 in WeatherDisplay:10.37 W/m2 CLR
06:17 24.9 °F 23.1 °F 30.31 in Calm     93% 0.00 in WeatherDisplay:10.37 W/m2 CLR
06:22 24.9 °F 23.1 °F 30.31 in Calm     93% 0.00 in WeatherDisplay:10.37 W/m2 CLR
06:27 24.9 °F 23.4 °F 30.30 in WNW 1.2 mph   94% 0.00 in WeatherDisplay:10.37 W/m2 CLR
06:32 25.0 °F 23.5 °F 30.30 in Calm     94% 0.00 in WeatherDisplay:10.37 W/m2 CLR
06:37 25.0 °F 23.2 °F 30.30 in Calm     93% 0.00 in WeatherDisplay:10.37 W/m2 CLR
06:42 24.9 °F 23.1 °F 30.31 in Calm     93% 0.00 in WeatherDisplay:10.37 W/m2 CLR
06:47 24.9 °F 23.4 °F 30.31 in Calm     94% 0.00 in WeatherDisplay:10.37 W/m2 CLR
06:52 24.9 °F 23.1 °F 30.31 in Calm     93% 0.00 in WeatherDisplay:10.37 W/m2 CLR
06:53 24.9 °F 23.1 °F 30.31 in Calm     93% 0.00 in WeatherDisplay:10.37 W/m2 CLR
06:58 24.8 °F 23.0 °F 30.30 in Calm     93% 0.00 in WeatherDisplay:10.37 W/m2 CLR
07:03 24.8 °F 23.0 °F 30.30 in East 2.3 mph 2.3 mph 93% 0.00 in WeatherDisplay:10.37 W/m2 CLR
07:08 25.0 °F 23.5 °F 30.30 in East 2.3 mph 2.3 mph 94% 0.00 in WeatherDisplay:10.37 W/m2 CLR
07:13 25.2 °F 23.7 °F 30.30 in East 2.3 mph 2.3 mph 94% 0.00 in WeatherDisplay:10.37 W/m2 CLR
07:18 25.3 °F 23.8 °F 30.29 in East 1.2 mph 1.2 mph 94% 0.00 in WeatherDisplay:10.37 W/m2 CLR
07:23 25.5 °F 24.0 °F 30.29 in East 1.2 mph 1.2 mph 94% 0.00 in WeatherDisplay:10.37 W/m2 CLR
07:28 25.4 °F 23.9 °F 30.30 in East 1.0 mph 1.0 mph 94% 0.00 in WeatherDisplay:10.37 W/m2 CLR
07:33 25.5 °F 24.0 °F 30.30 in Calm     94% 0.00 in WeatherDisplay:10.37 W/m2 CLR
07:38 25.5 °F 24.0 °F 30.30 in Calm     94% 0.00 in WeatherDisplay:10.37 W/m2 CLR
07:43 25.5 °F 24.0 °F 30.30 in East 1.2 mph 1.2 mph 94% 0.00 in WeatherDisplay:10.37 W/m2 CLR
07:48 25.6 °F 24.1 °F 30.30 in East 1.2 mph 1.2 mph 94% 0.00 in WeatherDisplay:10.37 W/m2 CLR
07:53 25.7 °F 24.2 °F 30.30 in Calm     94% 0.00 in WeatherDisplay:10.37 W/m2 CLR
07:58 25.9 °F 24.4 °F 30.31 in East 1.2 mph 1.2 mph 94% 0.00 in WeatherDisplay:10.37 W/m2 CLR
08:03 26.0 °F 24.5 °F 30.31 in East 2.3 mph 2.3 mph 94% 0.00 in WeatherDisplay:10.37 W/m2 CLR
08:08 26.3 °F 24.8 °F 30.31 in East 2.3 mph 2.3 mph 94% 0.00 in WeatherDisplay:10.37 W/m2 CLR
08:13 26.7 °F 25.2 °F 30.31 in East 2.3 mph 2.3 mph 94% 0.00 in WeatherDisplay:10.37 W/m2 CLR
08:18 27.2 °F 25.7 °F 30.31 in East 2.3 mph 2.3 mph 94% 0.00 in WeatherDisplay:10.37 W/m2 CLR
08:23 27.7 °F 26.2 °F 30.31 in East 2.3 mph 2.3 mph 94% 0.00 in WeatherDisplay:10.37 W/m2 CLR
08:28 28.1 °F 26.6 °F 30.31 in East 2.3 mph 2.3 mph 94% 0.00 in WeatherDisplay:10.37 W/m2 CLR
08:33 28.5 °F 27.0 °F 30.30 in East 1.2 mph 1.2 mph 94% 0.00 in WeatherDisplay:10.37 W/m2 CLR
08:38 28.9 °F 27.4 °F 30.31 in Calm     94% 0.00 in WeatherDisplay:10.37 W/m2 CLR
08:43 29.3 °F 27.5 °F 30.30 in East 2.3 mph 2.3 mph 93% 0.00 in WeatherDisplay:10.37 W/m2 CLR
08:48 29.8 °F 28.0 °F 30.30 in East 1.2 mph 1.2 mph 93% 0.00 in WeatherDisplay:10.37 W/m2 CLR
08:53 30.7 °F 28.9 °F 30.30 in East 3.5 mph 3.5 mph 93% 0.00 in WeatherDisplay:10.37 W/m2 CLR
08:58 31.1 °F 28.7 °F 30.31 in East 2.3 mph 2.3 mph 91% 0.00 in WeatherDisplay:10.37 W/m2 CLR
09:03 31.4 °F 28.8 °F 30.31 in East 1.2 mph 1.2 mph 90% 0.00 in WeatherDisplay:10.37 W/m2 CLR
09:08 32.0 °F 29.4 °F 30.32 in East 1.2 mph 1.2 mph 90% 0.00 in WeatherDisplay:10.37 W/m2 CLR
09:13 32.8 °F 29.9 °F 30.32 in East 1.2 mph 1.2 mph 89% 0.00 in WeatherDisplay:10.37 W/m2 CLR
09:18 33.3 °F 29.8 °F 30.33 in East 2.3 mph 2.3 mph 87% 0.00 in WeatherDisplay:10.37 W/m2 CLR
09:23 33.8 °F 30.3 °F 30.33 in East 2.3 mph 2.3 mph 87% 0.00 in WeatherDisplay:10.37 W/m2 CLR
09:28 34.4 °F 31.2 °F 30.34 in East 1.0 mph   88% 0.00 in WeatherDisplay:10.37 W/m2 CLR
09:33 35.1 °F 31.6 °F 30.34 in East 1.2 mph 1.2 mph 87% 0.00 in WeatherDisplay:10.37 W/m2 CLR
09:38 36.2 °F 32.7 °F 30.33 in East 1.2 mph 1.2 mph 87% 0.00 in WeatherDisplay:10.37 W/m2 CLR
09:43 37.2 °F 33.4 °F 30.34 in East 2.3 mph 2.3 mph 86% 0.00 in WeatherDisplay:10.37 W/m2 CLR
09:48 38.2 °F 33.5 °F 30.35 in SW 3.5 mph 3.5 mph 83% 0.00 in WeatherDisplay:10.37 W/m2 CLR
09:53 39.0 °F 33.0 °F 30.34 in SW 4.0 mph 4.0 mph 79% 0.00 in WeatherDisplay:10.37 W/m2 CLR
09:58 39.6 °F 33.3 °F 30.34 in SW 5.8 mph 5.8 mph 78% 0.00 in WeatherDisplay:10.37 W/m2 CLR
10:03 40.0 °F 34.0 °F 30.33 in SW 4.6 mph 4.6 mph 79% 0.00 in WeatherDisplay:10.37 W/m2 CLR
10:08 40.9 °F 33.5 °F 30.33 in WSW 3.5 mph 3.5 mph 75% 0.00 in WeatherDisplay:10.37 W/m2 CLR
10:13 41.2 °F 33.8 °F 30.33 in SW 4.6 mph 4.6 mph 75% 0.00 in WeatherDisplay:10.37 W/m2 CLR
10:18 41.9 °F 34.5 °F 30.33 in WSW 3.5 mph 3.5 mph 75% 0.00 in WeatherDisplay:10.37 W/m2 CLR
10:23 42.7 °F 34.9 °F 30.32 in West 5.8 mph 5.8 mph 74% 0.00 in WeatherDisplay:10.37 W/m2 CLR
10:28 43.3 °F 35.2 °F 30.32 in West 5.8 mph 5.8 mph 73% 0.00 in WeatherDisplay:10.37 W/m2 CLR
10:33 43.9 °F 35.1 °F 30.32 in West 5.8 mph 5.8 mph 71% 0.00 in WeatherDisplay:10.37 W/m2 CLR
10:38 44.5 °F 35.3 °F 30.33 in West 6.9 mph 6.9 mph 70% 0.00 in WeatherDisplay:10.37 W/m2 CLR
10:43 45.0 °F 35.4 °F 30.33 in SSW 5.8 mph 5.8 mph 69% 0.00 in WeatherDisplay:10.37 W/m2 CLR
10:48 45.3 °F 34.9 °F 30.32 in West 3.5 mph 3.5 mph 67% 0.00 in WeatherDisplay:10.37 W/m2 CLR
10:53 45.9 °F 35.5 °F 30.32 in SW 6.0 mph 6.0 mph 67% 0.00 in WeatherDisplay:10.37 W/m2 CLR
10:58 46.4 °F 36.0 °F 30.32 in West 3.5 mph 3.5 mph 67% 0.00 in WeatherDisplay:10.37 W/m2 CLR
11:03 46.7 °F 34.7 °F 30.32 in WSW 9.0 mph 9.0 mph 63% 0.00 in WeatherDisplay:10.37 W/m2 CLR
11:08 47.1 °F 34.7 °F 30.32 in WSW 6.9 mph 6.9 mph 62% 0.00 in WeatherDisplay:10.37 W/m2 CLR
11:13 47.7 °F 34.9 °F 30.31 in WSW 6.9 mph 6.9 mph 61% 0.00 in WeatherDisplay:10.37 W/m2 CLR
11:18 48.1 °F 34.4 °F 30.31 in SSW 8.1 mph 8.1 mph 59% 0.00 in WeatherDisplay:10.37 W/m2 CLR
11:23 48.8 °F 35.9 °F 30.31 in West 6.0 mph 6.0 mph 61% 0.00 in WeatherDisplay:10.37 W/m2 CLR
11:28 49.2 °F 35.4 °F 30.31 in WNW 7.0 mph 7.0 mph 59% 0.00 in WeatherDisplay:10.37 W/m2 CLR
11:33 49.4 °F 35.2 °F 30.31 in West 6.9 mph 6.9 mph 58% 0.00 in WeatherDisplay:10.37 W/m2 CLR
11:38 49.9 °F 35.2 °F 30.30 in SW 8.1 mph 8.1 mph 57% 0.00 in WeatherDisplay:10.37 W/m2 CLR
11:43 50.4 °F 35.2 °F 30.30 in WNW 9.2 mph 9.2 mph 56% 0.00 in WeatherDisplay:10.37 W/m2 CLR
11:48 51.0 °F 35.8 °F 30.30 in West 5.8 mph 5.8 mph 56% 0.00 in WeatherDisplay:10.37 W/m2 CLR
11:53 51.4 °F 35.3 °F 30.30 in West 10.4 mph 10.4 mph 54% 0.00 in WeatherDisplay:10.37 W/m2 CLR
11:58 51.4 °F 35.7 °F 30.30 in SW 6.9 mph 6.9 mph 55% 0.00 in WeatherDisplay:10.37 W/m2 CLR
12:03 51.9 °F 35.7 °F 30.30 in West 10.4 mph 10.4 mph 54% 0.00 in WeatherDisplay:10.37 W/m2 CLR
12:08 52.3 °F 35.6 °F 30.29 in West 7.0 mph 7.0 mph 53% 0.00 in WeatherDisplay:10.37 W/m2 CLR
12:13 52.4 °F 35.7 °F 30.29 in WSW 9.2 mph 9.2 mph 53% 0.00 in WeatherDisplay:10.37 W/m2 CLR
12:18 53.0 °F 35.8 °F 30.28 in SSW 8.1 mph 8.1 mph 52% 0.00 in WeatherDisplay:10.37 W/m2 CLR
12:23 53.3 °F 35.1 °F 30.28 in West 9.2 mph 9.2 mph 50% 0.00 in WeatherDisplay:10.37 W/m2 CLR
12:28 53.4 °F 35.2 °F 30.28 in West 9.2 mph 9.2 mph 50% 0.00 in WeatherDisplay:10.37 W/m2 CLR
12:33 53.8 °F 35.5 °F 30.28 in SW 10.4 mph 10.4 mph 50% 0.00 in WeatherDisplay:10.37 W/m2 CLR
12:38 53.9 °F 35.1 °F 30.28 in WSW 10.4 mph 10.4 mph 49% 0.00 in WeatherDisplay:10.37 W/m2 CLR
12:43 54.4 °F 36.1 °F 30.28 in WSW 10.4 mph 10.4 mph 50% 0.00 in WeatherDisplay:10.37 W/m2 CLR
12:48 54.6 °F 34.2 °F 30.28 in WSW 8.1 mph 8.1 mph 46% 0.00 in WeatherDisplay:10.37 W/m2 CLR
12:53 54.8 °F 34.4 °F 30.28 in WSW 8.1 mph 8.1 mph 46% 0.00 in WeatherDisplay:10.37 W/m2 CLR
12:58 55.0 °F 33.4 °F 30.27 in WSW 8.1 mph 8.1 mph 44% 0.00 in WeatherDisplay:10.37 W/m2 CLR
13:03 54.8 °F 33.8 °F 30.27 in SW 12.7 mph 12.7 mph 45% 0.00 in WeatherDisplay:10.37 W/m2 CLR
13:08 55.5 °F 35.0 °F 30.26 in SW 9.2 mph 9.2 mph 46% 0.00 in WeatherDisplay:10.37 W/m2 CLR
13:13 56.1 °F 35.5 °F 30.26 in West 8.1 mph 8.1 mph 46% 0.00 in WeatherDisplay:10.37 W/m2 CLR
13:18 56.5 °F 34.8 °F 30.26 in SSW 5.8 mph 5.8 mph 44% 0.00 in WeatherDisplay:10.37 W/m2 CLR
13:23 57.0 °F 34.7 °F 30.26 in WSW 6.9 mph 6.9 mph 43% 0.00 in WeatherDisplay:10.37 W/m2 CLR
13:28 57.8 °F 35.4 °F 30.26 in WSW 10.4 mph 10.4 mph 43% 0.00 in WeatherDisplay:10.37 W/m2 CLR
13:33 57.6 °F 35.2 °F 30.25 in West 6.9 mph 6.9 mph 43% 0.00 in WeatherDisplay:10.37 W/m2 CLR
13:38 57.7 °F 34.7 °F 30.25 in West 11.5 mph 11.5 mph 42% 0.00 in WeatherDisplay:10.37 W/m2 CLR
13:43 57.8 °F 34.2 °F 30.25 in West 8.1 mph 8.1 mph 41% 0.00 in WeatherDisplay:10.37 W/m2 CLR
13:48 57.8 °F 33.6 °F 30.25 in West 6.9 mph 6.9 mph 40% 0.00 in WeatherDisplay:10.37 W/m2 CLR
13:53 57.7 °F 32.9 °F 30.25 in WSW 10.4 mph 10.4 mph 39% 0.00 in WeatherDisplay:10.37 W/m2 CLR
13:58 58.1 °F 33.8 °F 30.25 in SW 11.5 mph 11.5 mph 40% 0.00 in WeatherDisplay:10.37 W/m2 CLR
14:03 58.7 °F 34.4 °F 30.25 in WNW 10.4 mph 10.4 mph 40% 0.00 in WeatherDisplay:10.37 W/m2 CLR
14:08 58.8 °F 33.2 °F 30.24 in WSW 9.2 mph 9.2 mph 38% 0.00 in WeatherDisplay:10.37 W/m2 CLR
14:13 58.9 °F 32.6 °F 30.24 in WSW 8.1 mph 8.1 mph 37% 0.00 in WeatherDisplay:10.37 W/m2 CLR
14:18 59.5 °F 33.8 °F 30.24 in WSW 9.2 mph 9.2 mph 38% 0.00 in WeatherDisplay:10.37 W/m2 CLR
14:23 59.3 °F 34.3 °F 30.24 in SW 11.5 mph 11.5 mph 39% 0.00 in WeatherDisplay:10.37 W/m2 CLR
14:28 59.6 °F 34.6 °F 30.24 in WSW 6.0 mph 6.0 mph 39% 0.00 in WeatherDisplay:10.37 W/m2 CLR
14:33 59.5 °F 33.8 °F 30.24 in South 11.5 mph 11.5 mph 38% 0.00 in WeatherDisplay:10.37 W/m2 CLR
14:38 59.9 °F 34.2 °F 30.24 in SW 6.9 mph 6.9 mph 38% 0.00 in WeatherDisplay:10.37 W/m2 CLR
14:43 60.2 °F 35.1 °F 30.24 in WSW 10.4 mph 10.4 mph 39% 0.00 in WeatherDisplay:10.37 W/m2 CLR
14:48 60.5 °F 34.7 °F 30.23 in SW 8.1 mph 8.1 mph 38% 0.00 in WeatherDisplay:10.37 W/m2 CLR
14:53 60.7 °F 34.9 °F 30.23 in WSW 4.0 mph 4.0 mph 38% 0.00 in WeatherDisplay:10.37 W/m2 CLR
14:58 60.6 °F 34.8 °F 30.24 in West 9.2 mph 9.2 mph 38% 0.00 in WeatherDisplay:10.37 W/m2 CLR
15:03 60.2 °F 33.1 °F 30.24 in WSW 11.5 mph 11.5 mph 36% 0.00 in WeatherDisplay:10.37 W/m2 CLR
15:08 59.9 °F 34.2 °F 30.24 in WSW 9.2 mph 9.2 mph 38% 0.00 in WeatherDisplay:10.37 W/m2 CLR
15:13 59.5 °F 33.8 °F 30.25 in WSW 6.9 mph 6.9 mph 38% 0.00 in WeatherDisplay:10.37 W/m2 CLR
15:18 59.3 °F 34.3 °F 30.24 in WSW 5.0 mph 5.0 mph 39% 0.00 in WeatherDisplay:10.37 W/m2 CLR
15:23 59.1 °F 34.1 °F 30.23 in SW 3.5 mph 3.5 mph 39% 0.00 in WeatherDisplay:10.37 W/m2 SCT
15:28 59.0 °F 34.7 °F 30.21 in SW 5.0 mph 5.0 mph 40% 0.00 in WeatherDisplay:10.37 W/m2 SCT
15:33 59.1 °F 34.7 °F 30.21 in SSW 4.6 mph 4.6 mph 40% 0.00 in WeatherDisplay:10.37 W/m2 SCT
15:38 59.1 °F 34.1 °F 30.19 in South 3.5 mph 3.5 mph 39% 0.00 in WeatherDisplay:10.37 W/m2 SCT
15:43 59.4 °F 35.0 °F 30.18 in SSE 4.0 mph 4.0 mph 40% 0.00 in WeatherDisplay:10.37 W/m2 -RA
15:48 59.6 °F 34.6 °F 30.19 in SW 8.1 mph 8.1 mph 39% 0.00 in WeatherDisplay:10.37 W/m2 -RA
15:53 59.6 °F 35.2 °F 30.17 in SSW 8.1 mph 8.1 mph 40% 0.00 in WeatherDisplay:10.37 W/m2 -RA
15:54 59.6 °F 35.2 °F 30.17 in SSW 8.1 mph 8.1 mph 40% 0.00 in WeatherDisplay:10.37 W/m2 -RA
15:59 59.5 °F 35.1 °F 30.16 in SW 5.8 mph 5.8 mph 40% 0.00 in WeatherDisplay:10.37 W/m2 -RA
16:04 59.7 °F 34.6 °F 30.16 in SSW 3.5 mph 4.1 mph 39% 0.00 in WeatherDisplay:10.37 W/m2 -RA
16:09 60.0 °F 34.9 °F 30.16 in SW 11.5 mph 11.5 mph 39% 0.00 in WeatherDisplay:10.37 W/m2 -RA
16:14 60.0 °F 34.9 °F 30.15 in SW 11.5 mph 11.5 mph 39% 0.00 in WeatherDisplay:10.37 W/m2 -RA
16:19 60.2 °F 35.1 °F 30.14 in SSW 6.0 mph 6.0 mph 39% 0.00 in WeatherDisplay:10.37 W/m2 -RA
16:24 60.2 °F 35.1 °F 30.14 in South 14.0 mph 14.0 mph 39% 0.00 in WeatherDisplay:10.37 W/m2 SCT
16:29 59.9 °F 34.2 °F 30.14 in South 10.4 mph 10.4 mph 38% 0.00 in WeatherDisplay:10.37 W/m2 SCT
16:34 59.4 °F 34.4 °F 30.15 in SW 8.1 mph 8.1 mph 39% 0.00 in WeatherDisplay:10.37 W/m2 SCT
16:39 59.5 °F 34.5 °F 30.14 in West 12.0 mph 12.0 mph 39% 0.00 in WeatherDisplay:10.37 W/m2 SCT
16:44 59.3 °F 34.9 °F 30.14 in SW 10.4 mph 10.4 mph 40% 0.00 in WeatherDisplay:10.37 W/m2 CLR
16:49 59.4 °F 33.7 °F 30.13 in WSW 8.1 mph 8.1 mph 38% 0.00 in WeatherDisplay:10.37 W/m2 CLR
16:54 59.0 °F 34.7 °F 30.13 in West 9.2 mph 9.2 mph 40% 0.00 in WeatherDisplay:10.37 W/m2 CLR
16:59 59.0 °F 34.0 °F 30.12 in WSW 10.4 mph 10.4 mph 39% 0.00 in WeatherDisplay:10.37 W/m2 CLR
17:04 58.7 °F 33.8 °F 30.12 in SW 8.1 mph 8.1 mph 39% 0.00 in WeatherDisplay:10.37 W/m2 CLR
17:09 58.6 °F 35.5 °F 30.11 in WSW 6.9 mph 6.9 mph 42% 0.00 in WeatherDisplay:10.37 W/m2 CLR
17:14 58.4 °F 35.3 °F 30.10 in SW 6.9 mph 6.9 mph 42% 0.00 in WeatherDisplay:10.37 W/m2 CLR
17:19 58.2 °F 35.8 °F 30.11 in West 9.2 mph 9.2 mph 43% 0.00 in WeatherDisplay:10.37 W/m2 CLR
17:24 58.1 °F 35.7 °F 30.11 in West 6.9 mph 6.9 mph 43% 0.00 in WeatherDisplay:10.37 W/m2 CLR
17:29 58.1 °F 35.7 °F 30.12 in West 10.4 mph 10.4 mph 43% 0.00 in WeatherDisplay:10.37 W/m2 CLR
17:34 58.1 °F 36.8 °F 30.13 in SW 6.9 mph 6.9 mph 45% 0.00 in WeatherDisplay:10.37 W/m2 CLR
17:39 58.0 °F 36.7 °F 30.12 in West 8.1 mph 8.1 mph 45% 0.00 in WeatherDisplay:10.37 W/m2 CLR
17:44 57.7 °F 37.0 °F 30.12 in West 6.9 mph 6.9 mph 46% 0.00 in WeatherDisplay:10.37 W/m2 CLR
17:49 58.1 °F 37.4 °F 30.12 in West 8.1 mph 8.1 mph 46% 0.00 in WeatherDisplay:10.37 W/m2 CLR
17:54 58.8 °F 38.0 °F 30.12 in WSW 3.5 mph 3.5 mph 46% 0.00 in WeatherDisplay:10.37 W/m2 CLR
17:59 58.6 °F 34.9 °F 30.12 in SW 6.9 mph 6.9 mph 41% 0.00 in WeatherDisplay:10.37 W/m2 CLR
18:04 58.3 °F 35.3 °F 30.12 in West 5.8 mph 5.8 mph 42% 0.00 in WeatherDisplay:10.37 W/m2 CLR
18:09 57.9 °F 34.9 °F 30.12 in WSW 5.8 mph 5.8 mph 42% 0.00 in WeatherDisplay:10.37 W/m2 CLR
18:14 57.6 °F 34.0 °F 30.12 in WSW 8.1 mph 8.1 mph 41% 0.00 in WeatherDisplay:10.37 W/m2 CLR
18:19 57.5 °F 33.3 °F 30.12 in SSW 4.6 mph 4.6 mph 40% 0.00 in WeatherDisplay:10.37 W/m2 CLR
18:24 57.4 °F 33.8 °F 30.12 in WSW 3.5 mph 3.5 mph 41% 0.00 in WeatherDisplay:10.37 W/m2 SCT
18:29 57.5 °F 33.9 °F 30.12 in WSW 8.1 mph 8.1 mph 41% 0.00 in WeatherDisplay:10.37 W/m2 SCT
18:34 57.2 °F 34.3 °F 30.12 in WSW 5.8 mph 5.8 mph 42% 0.00 in WeatherDisplay:10.37 W/m2 SCT
18:39 57.0 °F 34.1 °F 30.12 in WSW 3.5 mph 3.5 mph 42% 0.00 in WeatherDisplay:10.37 W/m2 SCT
18:44 57.0 °F 34.1 °F 30.12 in WSW 4.6 mph 4.6 mph 42% 0.00 in WeatherDisplay:10.37 W/m2 BKN
18:49 56.9 °F 34.6 °F 30.12 in SW 5.8 mph 5.8 mph 43% 0.00 in WeatherDisplay:10.37 W/m2 BKN
18:54 56.9 °F 34.6 °F 30.12 in West 3.5 mph 3.5 mph 43% 0.00 in WeatherDisplay:10.37 W/m2 BKN
18:59 56.9 °F 34.6 °F 30.12 in WSW 3.5 mph 3.5 mph 43% 0.00 in WeatherDisplay:10.37 W/m2 BKN
19:04 56.8 °F 34.5 °F 30.12 in WSW 2.3 mph 2.3 mph 43% 0.00 in WeatherDisplay:10.37 W/m2 OVC
19:09 56.8 °F 35.1 °F 30.12 in West 2.3 mph 2.3 mph 44% 0.00 in WeatherDisplay:10.37 W/m2 OVC
19:14 56.7 °F 35.5 °F 30.13 in West 4.0 mph 4.0 mph 45% 0.00 in WeatherDisplay:10.37 W/m2 OVC
19:19 56.6 °F 35.5 °F 30.13 in West 2.3 mph 2.3 mph 45% 0.00 in WeatherDisplay:10.37 W/m2 OVC
19:24 56.4 °F 35.3 °F 30.13 in SW 6.9 mph 6.9 mph 45% 0.00 in WeatherDisplay:10.37 W/m2 OVC
19:29 56.3 °F 35.2 °F 30.13 in SW 3.5 mph 3.5 mph 45% 0.00 in WeatherDisplay:10.37 W/m2 OVC
19:34 56.1 °F 35.5 °F 30.13 in West 3.5 mph 3.5 mph 46% 0.00 in WeatherDisplay:10.37 W/m2 OVC
19:39 56.0 °F 34.9 °F 30.14 in West 3.5 mph 3.5 mph 45% 0.00 in WeatherDisplay:10.37 W/m2 OVC
19:44 56.0 °F 34.9 °F 30.13 in West 2.3 mph 2.3 mph 45% 0.00 in WeatherDisplay:10.37 W/m2 OVC
19:49 55.9 °F 35.4 °F 30.14 in West 1.2 mph 1.2 mph 46% 0.00 in WeatherDisplay:10.37 W/m2 OVC
19:54 55.9 °F 35.4 °F 30.14 in West 2.3 mph 2.3 mph 46% 0.00 in WeatherDisplay:10.37 W/m2 OVC
19:59 55.9 °F 35.4 °F 30.14 in West 1.2 mph 1.2 mph 46% 0.00 in WeatherDisplay:10.37 W/m2 OVC
20:04 55.8 °F 35.3 °F 30.14 in West 2.0 mph 2.0 mph 46% 0.00 in WeatherDisplay:10.37 W/m2 OVC
20:09 55.8 °F 35.3 °F 30.14 in West 1.2 mph 1.2 mph 46% 0.00 in WeatherDisplay:10.37 W/m2 OVC
20:14 55.8 °F 35.3 °F 30.14 in West 2.3 mph 2.3 mph 46% 0.00 in WeatherDisplay:10.37 W/m2 OVC
20:19 55.8 °F 35.8 °F 30.14 in West 2.3 mph 2.3 mph 47% 0.00 in WeatherDisplay:10.37 W/m2 OVC
20:24 55.8 °F 35.3 °F 30.14 in West 2.3 mph 2.3 mph 46% 0.00 in WeatherDisplay:10.37 W/m2 OVC
20:29 55.7 °F 35.2 °F 30.14 in SSW 2.3 mph 2.3 mph 46% 0.00 in WeatherDisplay:10.37 W/m2 OVC
20:34 55.7 °F 36.3 °F 30.14 in SSW 1.2 mph 1.2 mph 48% 0.00 in WeatherDisplay:10.37 W/m2 OVC
20:39 55.6 °F 35.6 °F 30.14 in South 3.0 mph 3.0 mph 47% 0.00 in WeatherDisplay:10.37 W/m2 OVC
20:44 55.5 °F 36.1 °F 30.13 in South 2.3 mph 2.3 mph 48% 0.00 in WeatherDisplay:10.37 W/m2 OVC
20:54 55.4 °F 36.0 °F 30.13 in South 2.3 mph 2.3 mph 48% 0.00 in WeatherDisplay:10.37 W/m2 OVC
20:59 55.3 °F 36.4 °F 30.13 in South 1.2 mph 1.2 mph 49% 0.00 in WeatherDisplay:10.37 W/m2 OVC
21:04 55.3 °F 36.9 °F 30.13 in SSW 3.5 mph 3.5 mph 50% 0.00 in WeatherDisplay:10.37 W/m2 OVC
21:09 55.2 °F 37.8 °F 30.13 in Calm     52% 0.00 in WeatherDisplay:10.37 W/m2 OVC
21:14 54.9 °F 38.0 °F 30.14 in SSW 2.3 mph 2.3 mph 53% 0.00 in WeatherDisplay:10.37 W/m2 OVC
21:19 54.5 °F 39.5 °F 30.14 in SSW 2.3 mph 2.3 mph 57% 0.00 in WeatherDisplay:10.37 W/m2 OVC
21:24 54.2 °F 40.6 °F 30.14 in Calm     60% 0.00 in WeatherDisplay:10.37 W/m2 OVC
21:29 54.0 °F 39.1 °F 30.14 in Calm     57% 0.00 in WeatherDisplay:10.37 W/m2 OVC
21:34 53.8 °F 40.6 °F 30.14 in Calm   0.1 mph 61% 0.00 in WeatherDisplay:10.37 W/m2 OVC
21:39 53.7 °F 39.7 °F 30.13 in SSW 1.2 mph 1.2 mph 59% 0.00 in WeatherDisplay:10.37 W/m2 OVC
21:44 53.5 °F 40.3 °F 30.13 in Calm     61% 0.00 in WeatherDisplay:10.37 W/m2 OVC
21:49 53.4 °F 41.1 °F 30.13 in Calm     63% 0.00 in WeatherDisplay:10.37 W/m2 OVC
21:54 53.2 °F 40.5 °F 30.13 in Calm     62% 0.00 in WeatherDisplay:10.37 W/m2 OVC
21:59 53.0 °F 40.3 °F 30.12 in Calm     62% 0.00 in WeatherDisplay:10.37 W/m2 OVC
22:04 52.8 °F 40.9 °F 30.13 in SSW 2.3 mph 2.3 mph 64% 0.00 in WeatherDisplay:10.37 W/m2 OVC
22:09 52.6 °F 40.3 °F 30.13 in SSW 1.0 mph 1.0 mph 63% 0.00 in WeatherDisplay:10.37 W/m2 OVC
22:14 52.5 °F 40.2 °F 30.13 in SSW 1.2 mph 1.2 mph 63% 0.00 in WeatherDisplay:10.37 W/m2 OVC
22:19 52.3 °F 40.4 °F 30.14 in Calm     64% 0.00 in WeatherDisplay:10.37 W/m2 OVC
22:24 52.1 °F 41.4 °F 30.14 in SSW 2.3 mph 2.3 mph 67% 0.00 in WeatherDisplay:10.37 W/m2 OVC
22:29 51.9 °F 42.0 °F 30.14 in SSW 1.2 mph 1.2 mph 69% 0.00 in WeatherDisplay:10.37 W/m2 OVC
22:34 51.7 °F 42.2 °F 30.13 in Calm     70% 0.00 in WeatherDisplay:10.37 W/m2 OVC
22:39 51.5 °F 42.4 °F 30.12 in SSW 2.3 mph 2.3 mph 71% 0.00 in WeatherDisplay:10.37 W/m2 OVC
22:44 51.2 °F 43.5 °F 30.12 in Calm     75% 0.00 in WeatherDisplay:10.37 W/m2 -RA
22:49 50.8 °F 42.8 °F 30.12 in SSW 1.2 mph 1.2 mph 74% 0.01 in WeatherDisplay:10.37 W/m2 -RA
22:54 50.3 °F 43.7 °F 30.12 in SSW 1.2 mph 1.2 mph 78% 0.01 in WeatherDisplay:10.37 W/m2 -RA
22:59 49.9 °F 42.9 °F 30.12 in SSW 1.2 mph 1.2 mph 77% 0.01 in WeatherDisplay:10.37 W/m2 -RA
23:04 49.7 °F 43.4 °F 30.12 in Calm     79% 0.01 in WeatherDisplay:10.37 W/m2 -RA
23:09 49.6 °F 43.3 °F 30.12 in SSW 1.2 mph 1.2 mph 79% 0.01 in WeatherDisplay:10.37 W/m2 -RA
23:14 49.6 °F 43.0 °F 30.12 in Calm   0.2 mph 78% 0.01 in WeatherDisplay:10.37 W/m2 -RA
23:24 49.8 °F 44.2 °F 30.12 in SSW 1.2 mph 1.2 mph 81% 0.01 in WeatherDisplay:10.37 W/m2 OVC
23:29 49.7 °F 44.1 °F 30.13 in North 4.0 mph 4.0 mph 81% 0.01 in WeatherDisplay:10.37 W/m2 OVC
23:34 49.5 °F 44.2 °F 30.13 in North 3.5 mph 3.5 mph 82% 0.01 in WeatherDisplay:10.37 W/m2 OVC
23:39 49.4 °F 44.4 °F 30.13 in North 2.3 mph 2.3 mph 83% 0.01 in WeatherDisplay:10.37 W/m2 OVC
23:44 49.4 °F 44.1 °F 30.12 in East 2.3 mph 2.3 mph 82% 0.01 in WeatherDisplay:10.37 W/m2 OVC
23:49 49.6 °F 43.3 °F 30.11 in SSE 2.3 mph 2.3 mph 79% 0.00 in WeatherDisplay:10.37 W/m2 OVC
23:54 49.9 °F 42.6 °F 30.10 in ESE 2.3 mph 2.3 mph 76% 0.00 in WeatherDisplay:10.37 W/m2 OVC
23:59 50.1 °F 42.8 °F 30.10 in Calm     76% 0.00 in WeatherDisplay:10.37 W/m2 OVC
Smyth Weather
Compliments of Weather Underground - 3 mb